Aérodrome :
LOGIN :

S'inscrire | Disclaimer

   EN    FR    IT 

 










Légende :    VFR   VFR Marginal   IFR   IFR Intensif   IFR Très Intensif
Visi : 
Plafond : 
>= 8 km
>= 3000ft
5 à 8 km
1000 à 3000 ft
1500m à 5 km
500 à 1000 ft
800 à 1500m
200 à 500 ft
< 800m
< 200 ft
Symboles :   Orages  Brouillard  Fortes neiges  Fortes précipitations  Vent > 20 kt
SIGMETs :   Divers  Orages  Givrage  Turbulence  Onde Orograph.  Cendres Volcan.






- Altitude de l'aérodrome : 13 ft
- Code IATA : OST


EBOS - Oostend bruges Int.

DERNIER METAR :
  • 301550Z 16005KT 9999 -RA FEW007 14/13 Q1014 NOSIG

METARs EXPIRÉS :
  • 301520Z 15004KT 9999 -RA FEW010 BKN036 14/13 Q1014 NOSIG
  • 301450Z 19005KT 160V230 9999 -RA FEW009 SCT024 BKN044 13/12 Q1014 NOSIG
  • 301420Z 19005KT 150V210 9000 -RA FEW007 OVC046 14/13 Q1014 NOSIG
  • 301350Z 19005KT 150V220 8000 RA FEW007 BKN046 14/12 Q1014 NOSIG
  • 301320Z 20005KT 9999 -RA FEW009 BKN042 14/12 Q1014 NOSIG

TAF TAF EBOS
Valide du 30 à 12h jusqu'au 01 à 18h UTC


301110Z 3012/0118 21006KT 9999 SCT014 BKN020
TEMPO 3012/3017 4000 RA SHRA SCT011 BKN014



MET'MAP, la Météo Aéronautique d'un coup d'oeil ! - Copyright ORBIFLY Décembre 2007 - Disclaimer

ORBIFLY MET'MAP TEAM :

Programmation & Développement : Alexandra Zaïnal
Sur une idée originale de : Baudouin d'Aumeries
Soutien technique & logistique : Manuel Goepfert
Assistance : Marc-Olivier Méhu




SOURCES & CREDITS :

   NOAA